sensor_id;sensor_type;location;lat;lon;timestamp;P1;durP1;ratioP1;P2;durP2;ratioP2
72621;SDS011;60665;53.506;9.582;2022-12-18T04:13:03;15.95;;;6.57;;
72621;SDS011;60665;53.506;9.582;2022-12-18T04:15:29;13.60;;;6.40;;
72621;SDS011;60665;53.506;9.582;2022-12-18T04:17:54;13.73;;;5.43;;
72621;SDS011;60665;53.506;9.582;2022-12-18T04:20:20;12.88;;;4.85;;
72621;SDS011;60665;53.506;9.582;2022-12-18T04:22:45;11.32;;;5.28;;
72621;SDS011;60665;53.506;9.582;2022-12-18T04:25:10;14.80;;;5.05;;
72621;SDS011;60665;53.506;9.582;2022-12-18T04:27:36;12.43;;;5.10;;
72621;SDS011;60665;53.506;9.582;2022-12-18T04:30:01;11.70;;;4.68;;
72621;SDS011;60665;53.506;9.582;2022-12-18T04:32:27;13.77;;;5.43;;
72621;SDS011;60665;53.506;9.582;2022-12-18T04:34:52;11.40;;;4.88;;
72621;SDS011;60665;53.506;9.582;2022-12-18T04:37:17;10.68;;;4.72;;
72621;SDS011;60665;53.506;9.582;2022-12-18T04:39:43;10.10;;;4.85;;
72621;SDS011;60665;53.506;9.582;2022-12-18T04:42:08;11.18;;;4.60;;
72621;SDS011;60665;53.506;9.582;2022-12-18T04:44:34;13.48;;;5.15;;
72621;SDS011;60665;53.506;9.582;2022-12-18T04:46:59;10.27;;;4.50;;
72621;SDS011;60665;53.506;9.582;2022-12-18T04:49:25;9.57;;;4.30;;
72621;SDS011;60665;53.506;9.582;2022-12-18T04:51:50;11.60;;;4.47;;
72621;SDS011;60665;53.506;9.582;2022-12-18T04:54:16;10.77;;;4.55;;
72621;SDS011;60665;53.506;9.582;2022-12-18T04:56:44;10.00;;;4.25;;
72621;SDS011;60665;53.506;9.582;2022-12-18T04:59:10;11.90;;;4.50;;
72621;SDS011;60665;53.506;9.582;2022-12-18T05:01:35;10.88;;;5.03;;
72621;SDS011;60665;53.506;9.582;2022-12-18T05:04:01;10.25;;;4.82;;
72621;SDS011;60665;53.506;9.582;2022-12-18T05:06:27;12.18;;;4.38;;
72621;SDS011;60665;53.506;9.582;2022-12-18T05:08:52;8.52;;;4.18;;
72621;SDS011;60665;53.506;9.582;2022-12-18T05:11:18;11.15;;;4.28;;
72621;SDS011;60665;53.506;9.582;2022-12-18T05:13:44;10.52;;;4.40;;
72621;SDS011;60665;53.506;9.582;2022-12-18T05:16:10;14.55;;;4.68;;
72621;SDS011;60665;53.506;9.582;2022-12-18T05:18:36;9.70;;;4.43;;
72621;SDS011;60665;53.506;9.582;2022-12-18T05:21:02;12.30;;;4.70;;
72621;SDS011;60665;53.506;9.582;2022-12-18T05:23:27;11.82;;;4.47;;
72621;SDS011;60665;53.506;9.582;2022-12-18T05:25:57;10.27;;;4.75;;
72621;SDS011;60665;53.506;9.582;2022-12-18T05:28:25;10.05;;;4.15;;
72621;SDS011;60665;53.506;9.582;2022-12-18T05:30:53;10.73;;;4.72;;
72621;SDS011;60665;53.506;9.582;2022-12-18T05:33:20;8.85;;;4.05;;
72621;SDS011;60665;53.506;9.582;2022-12-18T05:35:53;10.20;;;4.13;;
72621;SDS011;60665;53.506;9.582;2022-12-18T05:38:20;9.25;;;3.92;;
72621;SDS011;60665;53.506;9.582;2022-12-18T05:40:49;10.48;;;4.32;;
72621;SDS011;60665;53.506;9.582;2022-12-18T05:45:41;9.73;;;4.00;;
72621;SDS011;60665;53.506;9.582;2022-12-18T05:48:06;9.73;;;4.07;;
72621;SDS011;60665;53.506;9.582;2022-12-18T05:50:52;13.77;;;4.38;;
72621;SDS011;60665;53.506;9.582;2022-12-18T05:53:18;10.05;;;4.18;;
72621;SDS011;60665;53.506;9.582;2022-12-18T05:55:45;9.60;;;3.85;;
72621;SDS011;60665;53.506;9.582;2022-12-18T05:58:11;9.48;;;3.72;;
72621;SDS011;60665;53.506;9.582;2022-12-18T06:00:38;9.70;;;4.35;;
72621;SDS011;60665;53.506;9.582;2022-12-18T06:03:05;11.15;;;4.00;;
72621;SDS011;60665;53.506;9.582;2022-12-18T06:05:41;9.80;;;3.42;;
72621;SDS011;60665;53.506;9.582;2022-12-18T06:08:08;9.98;;;4.25;;
72621;SDS011;60665;53.506;9.582;2022-12-18T06:10:34;8.73;;;3.60;;
72621;SDS011;60665;53.506;9.582;2022-12-18T06:13:00;11.20;;;4.10;;
72621;SDS011;60665;53.506;9.582;2022-12-18T06:15:25;10.80;;;4.05;;
72621;SDS011;60665;53.506;9.582;2022-12-18T06:17:51;10.93;;;4.30;;
72621;SDS011;60665;53.506;9.582;2022-12-18T06:20:16;11.77;;;4.57;;
72621;SDS011;60665;53.506;9.582;2022-12-18T06:22:41;10.45;;;4.63;;
72621;SDS011;60665;53.506;9.582;2022-12-18T06:25:07;10.90;;;4.68;;
72621;SDS011;60665;53.506;9.582;2022-12-18T06:27:32;12.18;;;5.60;;
72621;SDS011;60665;53.506;9.582;2022-12-18T06:29:58;14.50;;;5.25;;
72621;SDS011;60665;53.506;9.582;2022-12-18T06:32:24;11.93;;;5.18;;
72621;SDS011;60665;53.506;9.582;2022-12-18T06:34:49;13.40;;;4.40;;
72621;SDS011;60665;53.506;9.582;2022-12-18T06:37:15;12.30;;;4.57;;
72621;SDS011;60665;53.506;9.582;2022-12-18T06:39:40;8.52;;;4.28;;
72621;SDS011;60665;53.506;9.582;2022-12-18T06:42:05;11.25;;;4.35;;
72621;SDS011;60665;53.506;9.582;2022-12-18T06:44:31;9.18;;;4.25;;
72621;SDS011;60665;53.506;9.582;2022-12-18T06:46:56;10.63;;;4.32;;
72621;SDS011;60665;53.506;9.582;2022-12-18T06:49:22;12.45;;;4.38;;
72621;SDS011;60665;53.506;9.582;2022-12-18T06:51:47;12.30;;;4.32;;
72621;SDS011;60665;53.506;9.582;2022-12-18T06:54:12;9.50;;;4.25;;
72621;SDS011;60665;53.506;9.582;2022-12-18T06:56:38;10.32;;;4.20;;
72621;SDS011;60665;53.506;9.582;2022-12-18T06:59:03;11.93;;;4.03;;
72621;SDS011;60665;53.506;9.582;2022-12-18T07:01:29;9.43;;;4.07;;
72621;SDS011;60665;53.506;9.582;2022-12-18T07:03:55;8.85;;;3.72;;
72621;SDS011;60665;53.506;9.582;2022-12-18T07:06:22;16.95;;;4.90;;
72621;SDS011;60665;53.506;9.582;2022-12-18T07:08:49;10.15;;;3.85;;
72621;SDS011;60665;53.506;9.582;2022-12-18T07:11:15;11.52;;;3.78;;
72621;SDS011;60665;53.506;9.582;2022-12-18T07:13:41;9.75;;;3.72;;
72621;SDS011;60665;53.506;9.582;2022-12-18T07:16:08;11.30;;;4.50;;
72621;SDS011;60665;53.506;9.582;2022-12-18T07:18:38;10.88;;;4.60;;
72621;SDS011;60665;53.506;9.582;2022-12-18T07:21:05;8.23;;;3.65;;
72621;SDS011;60665;53.506;9.582;2022-12-18T07:23:32;8.52;;;4.13;;
72621;SDS011;60665;53.506;9.582;2022-12-18T15:12:33;21.83;;;8.93;;
72621;SDS011;60665;53.506;9.582;2022-12-18T15:15:00;18.98;;;8.32;;
72621;SDS011;60665;53.506;9.582;2022-12-18T15:17:25;15.23;;;6.88;;
72621;SDS011;60665;53.506;9.582;2022-12-18T15:19:52;17.05;;;7.53;;
72621;SDS011;60665;53.506;9.582;2022-12-18T15:24:55;12.70;;;6.00;;
72621;SDS011;60665;53.506;9.582;2022-12-18T15:27:23;14.65;;;6.35;;
72621;SDS011;60665;53.506;9.582;2022-12-18T15:32:35;15.45;;;7.00;;
72621;SDS011;60665;53.506;9.582;2022-12-18T15:35:23;16.65;;;7.57;;
72621;SDS011;60665;53.506;9.582;2022-12-18T15:37:48;17.60;;;7.88;;
72621;SDS011;60665;53.506;9.582;2022-12-18T15:40:15;17.17;;;8.15;;
72621;SDS011;60665;53.506;9.582;2022-12-18T15:42:41;14.80;;;5.93;;
72621;SDS011;60665;53.506;9.582;2022-12-18T15:45:26;15.77;;;6.53;;
72621;SDS011;60665;53.506;9.582;2022-12-18T15:47:51;13.75;;;6.75;;
72621;SDS011;60665;53.506;9.582;2022-12-18T15:50:17;13.02;;;6.00;;
72621;SDS011;60665;53.506;9.582;2022-12-18T15:52:43;14.15;;;5.97;;
72621;SDS011;60665;53.506;9.582;2022-12-18T15:55:14;16.58;;;6.90;;
72621;SDS011;60665;53.506;9.582;2022-12-18T15:57:59;15.40;;;7.32;;
72621;SDS011;60665;53.506;9.582;2022-12-18T16:00:24;23.48;;;9.23;;
72621;SDS011;60665;53.506;9.582;2022-12-18T16:02:50;18.75;;;8.90;;
72621;SDS011;60665;53.506;9.582;2022-12-18T16:05:16;25.05;;;10.27;;
72621;SDS011;60665;53.506;9.582;2022-12-18T16:07:43;20.85;;;9.93;;
72621;SDS011;60665;53.506;9.582;2022-12-18T16:10:09;19.23;;;9.48;;
72621;SDS011;60665;53.506;9.582;2022-12-18T16:12:34;22.65;;;9.32;;
72621;SDS011;60665;53.506;9.582;2022-12-18T16:15:00;17.52;;;7.95;;
72621;SDS011;60665;53.506;9.582;2022-12-18T16:17:26;16.67;;;7.85;;
72621;SDS011;60665;53.506;9.582;2022-12-18T16:19:51;15.13;;;6.55;;
72621;SDS011;60665;53.506;9.582;2022-12-18T16:22:21;16.83;;;7.18;;
72621;SDS011;60665;53.506;9.582;2022-12-18T16:24:52;17.55;;;6.32;;
72621;SDS011;60665;53.506;9.582;2022-12-18T16:27:18;18.15;;;7.53;;
72621;SDS011;60665;53.506;9.582;2022-12-18T16:29:44;15.60;;;6.30;;
72621;SDS011;60665;53.506;9.582;2022-12-18T16:32:11;14.73;;;6.70;;
72621;SDS011;60665;53.506;9.582;2022-12-18T16:34:38;19.83;;;6.95;;
72621;SDS011;60665;53.506;9.582;2022-12-18T16:37:04;15.07;;;6.47;;
72621;SDS011;60665;53.506;9.582;2022-12-18T16:39:31;20.38;;;7.85;;
72621;SDS011;60665;53.506;9.582;2022-12-18T16:42:00;15.40;;;7.15;;
72621;SDS011;60665;53.506;9.582;2022-12-18T16:44:26;15.80;;;6.28;;
72621;SDS011;60665;53.506;9.582;2022-12-18T16:46:52;23.85;;;8.00;;
72621;SDS011;60665;53.506;9.582;2022-12-18T16:49:17;21.23;;;7.72;;
72621;SDS011;60665;53.506;9.582;2022-12-18T16:51:43;16.90;;;6.88;;
72621;SDS011;60665;53.506;9.582;2022-12-18T16:54:10;18.95;;;7.10;;
72621;SDS011;60665;53.506;9.582;2022-12-18T16:56:36;18.17;;;7.32;;
72621;SDS011;60665;53.506;9.582;2022-12-18T16:59:02;20.10;;;7.78;;
72621;SDS011;60665;53.506;9.582;2022-12-18T17:01:28;17.95;;;7.70;;
72621;SDS011;60665;53.506;9.582;2022-12-18T17:03:59;23.58;;;9.90;;
72621;SDS011;60665;53.506;9.582;2022-12-18T17:06:27;20.38;;;7.60;;
72621;SDS011;60665;53.506;9.582;2022-12-18T17:08:57;21.00;;;8.45;;
72621;SDS011;60665;53.506;9.582;2022-12-18T17:11:26;23.60;;;7.78;;
72621;SDS011;60665;53.506;9.582;2022-12-18T17:13:53;18.30;;;7.07;;
72621;SDS011;60665;53.506;9.582;2022-12-18T17:16:19;22.55;;;8.68;;
72621;SDS011;60665;53.506;9.582;2022-12-18T17:18:44;19.48;;;7.03;;
72621;SDS011;60665;53.506;9.582;2022-12-18T17:21:10;20.95;;;7.72;;
72621;SDS011;60665;53.506;9.582;2022-12-18T17:23:38;19.20;;;7.18;;
72621;SDS011;60665;53.506;9.582;2022-12-18T17:26:05;29.33;;;12.95;;
72621;SDS011;60665;53.506;9.582;2022-12-18T17:28:32;19.23;;;7.85;;
72621;SDS011;60665;53.506;9.582;2022-12-18T17:30:58;22.55;;;8.93;;
72621;SDS011;60665;53.506;9.582;2022-12-18T17:33:24;20.77;;;7.68;;
72621;SDS011;60665;53.506;9.582;2022-12-18T17:35:50;19.83;;;7.78;;
72621;SDS011;60665;53.506;9.582;2022-12-18T17:38:15;26.98;;;10.52;;
72621;SDS011;60665;53.506;9.582;2022-12-18T17:40:41;16.02;;;7.15;;
72621;SDS011;60665;53.506;9.582;2022-12-18T17:43:07;22.77;;;9.50;;
72621;SDS011;60665;53.506;9.582;2022-12-18T17:45:36;25.48;;;10.45;;
72621;SDS011;60665;53.506;9.582;2022-12-18T17:48:03;19.60;;;8.23;;
72621;SDS011;60665;53.506;9.582;2022-12-18T17:50:29;46.60;;;15.68;;
72621;SDS011;60665;53.506;9.582;2022-12-18T17:52:56;63.88;;;22.58;;
72621;SDS011;60665;53.506;9.582;2022-12-18T17:55:21;49.83;;;19.52;;
72621;SDS011;60665;53.506;9.582;2022-12-18T17:57:47;37.33;;;17.02;;
72621;SDS011;60665;53.506;9.582;2022-12-18T18:00:13;25.10;;;9.65;;
72621;SDS011;60665;53.506;9.582;2022-12-18T18:02:39;26.75;;;11.30;;
72621;SDS011;60665;53.506;9.582;2022-12-18T18:05:04;22.58;;;8.63;;
72621;SDS011;60665;53.506;9.582;2022-12-18T18:07:30;23.77;;;8.45;;
72621;SDS011;60665;53.506;9.582;2022-12-18T18:09:55;22.02;;;8.02;;
72621;SDS011;60665;53.506;9.582;2022-12-18T18:12:21;17.30;;;6.53;;
72621;SDS011;60665;53.506;9.582;2022-12-18T18:15:05;15.82;;;7.15;;
72621;SDS011;60665;53.506;9.582;2022-12-18T18:17:30;16.73;;;6.55;;
72621;SDS011;60665;53.506;9.582;2022-12-18T18:19:59;22.35;;;7.97;;
72621;SDS011;60665;53.506;9.582;2022-12-18T18:22:24;17.45;;;7.85;;
72621;SDS011;60665;53.506;9.582;2022-12-18T18:24:49;19.73;;;7.53;;
72621;SDS011;60665;53.506;9.582;2022-12-18T18:27:15;21.35;;;7.88;;
72621;SDS011;60665;53.506;9.582;2022-12-18T18:29:40;18.35;;;7.18;;
72621;SDS011;60665;53.506;9.582;2022-12-18T18:32:06;18.75;;;7.68;;
72621;SDS011;60665;53.506;9.582;2022-12-18T18:34:31;17.25;;;7.57;;
72621;SDS011;60665;53.506;9.582;2022-12-18T18:36:57;18.33;;;7.95;;
72621;SDS011;60665;53.506;9.582;2022-12-18T18:39:23;19.27;;;7.25;;
72621;SDS011;60665;53.506;9.582;2022-12-18T18:41:48;18.30;;;6.35;;
72621;SDS011;60665;53.506;9.582;2022-12-18T18:44:15;15.52;;;6.32;;
72621;SDS011;60665;53.506;9.582;2022-12-18T18:46:41;16.60;;;7.38;;
72621;SDS011;60665;53.506;9.582;2022-12-18T18:49:07;16.60;;;7.00;;
72621;SDS011;60665;53.506;9.582;2022-12-18T18:51:32;18.13;;;7.18;;
72621;SDS011;60665;53.506;9.582;2022-12-18T18:53:58;17.77;;;6.75;;
72621;SDS011;60665;53.506;9.582;2022-12-18T18:56:23;15.10;;;6.63;;
72621;SDS011;60665;53.506;9.582;2022-12-18T18:58:51;12.73;;;5.47;;
72621;SDS011;60665;53.506;9.582;2022-12-18T19:01:20;18.60;;;7.22;;
72621;SDS011;60665;53.506;9.582;2022-12-18T19:03:46;16.17;;;5.88;;
72621;SDS011;60665;53.506;9.582;2022-12-18T19:06:16;14.32;;;6.20;;
72621;SDS011;60665;53.506;9.582;2022-12-18T19:08:43;15.25;;;6.15;;
72621;SDS011;60665;53.506;9.582;2022-12-18T19:11:11;14.25;;;6.03;;
72621;SDS011;60665;53.506;9.582;2022-12-18T19:13:55;13.60;;;5.40;;
72621;SDS011;60665;53.506;9.582;2022-12-18T19:16:21;14.32;;;5.72;;
72621;SDS011;60665;53.506;9.582;2022-12-18T19:18:47;15.80;;;6.50;;
72621;SDS011;60665;53.506;9.582;2022-12-18T19:21:12;11.30;;;5.22;;
72621;SDS011;60665;53.506;9.582;2022-12-18T19:23:37;12.65;;;5.35;;
72621;SDS011;60665;53.506;9.582;2022-12-18T19:26:05;14.90;;;6.22;;
72621;SDS011;60665;53.506;9.582;2022-12-18T19:28:31;13.23;;;5.88;;
72621;SDS011;60665;53.506;9.582;2022-12-18T19:31:01;12.70;;;5.82;;
72621;SDS011;60665;53.506;9.582;2022-12-18T19:33:28;16.02;;;5.40;;
72621;SDS011;60665;53.506;9.582;2022-12-18T19:35:55;12.40;;;5.90;;
72621;SDS011;60665;53.506;9.582;2022-12-18T19:38:21;15.57;;;6.18;;
72621;SDS011;60665;53.506;9.582;2022-12-18T19:40:46;14.75;;;5.60;;
72621;SDS011;60665;53.506;9.582;2022-12-18T19:43:11;12.95;;;4.03;;
72621;SDS011;60665;53.506;9.582;2022-12-18T19:45:37;12.38;;;5.60;;
72621;SDS011;60665;53.506;9.582;2022-12-18T19:48:03;13.80;;;5.93;;
72621;SDS011;60665;53.506;9.582;2022-12-18T19:50:30;10.80;;;4.90;;
72621;SDS011;60665;53.506;9.582;2022-12-18T19:52:55;10.75;;;4.95;;
72621;SDS011;60665;53.506;9.582;2022-12-18T19:55:21;13.77;;;5.80;;
72621;SDS011;60665;53.506;9.582;2022-12-18T19:57:46;14.45;;;6.10;;
72621;SDS011;60665;53.506;9.582;2022-12-18T20:00:12;13.75;;;5.57;;
72621;SDS011;60665;53.506;9.582;2022-12-18T20:02:57;13.35;;;5.72;;
72621;SDS011;60665;53.506;9.582;2022-12-18T20:05:23;11.48;;;5.10;;
72621;SDS011;60665;53.506;9.582;2022-12-18T20:07:49;14.07;;;5.28;;
72621;SDS011;60665;53.506;9.582;2022-12-18T20:10:16;15.30;;;5.70;;
72621;SDS011;60665;53.506;9.582;2022-12-18T20:12:42;14.75;;;5.57;;
72621;SDS011;60665;53.506;9.582;2022-12-18T20:15:07;13.43;;;5.30;;
72621;SDS011;60665;53.506;9.582;2022-12-18T20:17:33;12.93;;;6.18;;
72621;SDS011;60665;53.506;9.582;2022-12-18T20:19:59;13.98;;;5.78;;
72621;SDS011;60665;53.506;9.582;2022-12-18T20:22:24;12.30;;;5.65;;
72621;SDS011;60665;53.506;9.582;2022-12-18T20:24:49;14.13;;;5.40;;
72621;SDS011;60665;53.506;9.582;2022-12-18T20:27:15;13.15;;;5.15;;
72621;SDS011;60665;53.506;9.582;2022-12-18T20:29:40;12.50;;;5.38;;
72621;SDS011;60665;53.506;9.582;2022-12-18T20:32:07;14.00;;;4.93;;
72621;SDS011;60665;53.506;9.582;2022-12-18T20:34:32;12.80;;;4.82;;
72621;SDS011;60665;53.506;9.582;2022-12-18T20:37:01;13.20;;;5.00;;
72621;SDS011;60665;53.506;9.582;2022-12-18T20:39:26;13.00;;;4.63;;
72621;SDS011;60665;53.506;9.582;2022-12-18T20:41:52;12.32;;;5.30;;
72621;SDS011;60665;53.506;9.582;2022-12-18T20:44:38;12.93;;;5.22;;
72621;SDS011;60665;53.506;9.582;2022-12-18T20:47:03;17.48;;;5.50;;
72621;SDS011;60665;53.506;9.582;2022-12-18T20:49:29;14.57;;;4.97;;
72621;SDS011;60665;53.506;9.582;2022-12-18T20:51:56;15.48;;;5.75;;
72621;SDS011;60665;53.506;9.582;2022-12-18T20:54:23;12.05;;;5.05;;
72621;SDS011;60665;53.506;9.582;2022-12-18T20:56:49;11.35;;;4.82;;
72621;SDS011;60665;53.506;9.582;2022-12-18T20:59:17;11.32;;;4.68;;
72621;SDS011;60665;53.506;9.582;2022-12-18T21:01:43;14.48;;;5.47;;
72621;SDS011;60665;53.506;9.582;2022-12-18T21:04:10;12.38;;;5.15;;
72621;SDS011;60665;53.506;9.582;2022-12-18T21:06:36;11.52;;;5.20;;
72621;SDS011;60665;53.506;9.582;2022-12-18T21:09:01;15.20;;;5.10;;
72621;SDS011;60665;53.506;9.582;2022-12-18T21:11:27;12.48;;;4.78;;
72621;SDS011;60665;53.506;9.582;2022-12-18T21:16:48;11.73;;;4.68;;
72621;SDS011;60665;53.506;9.582;2022-12-18T21:19:19;13.30;;;5.03;;
72621;SDS011;60665;53.506;9.582;2022-12-18T21:21:47;11.38;;;4.95;;
72621;SDS011;60665;53.506;9.582;2022-12-18T21:24:12;14.23;;;5.07;;
72621;SDS011;60665;53.506;9.582;2022-12-18T21:26:38;10.50;;;4.55;;
72621;SDS011;60665;53.506;9.582;2022-12-18T21:29:05;11.63;;;4.57;;
72621;SDS011;60665;53.506;9.582;2022-12-18T21:31:33;11.50;;;4.65;;
72621;SDS011;60665;53.506;9.582;2022-12-18T21:33:59;9.55;;;4.22;;
72621;SDS011;60665;53.506;9.582;2022-12-18T21:36:25;14.38;;;5.60;;
72621;SDS011;60665;53.506;9.582;2022-12-18T21:38:51;14.45;;;5.00;;
72621;SDS011;60665;53.506;9.582;2022-12-18T21:44:03;10.35;;;4.25;;
72621;SDS011;60665;53.506;9.582;2022-12-18T21:46:35;12.20;;;4.68;;
72621;SDS011;60665;53.506;9.582;2022-12-18T21:49:03;14.45;;;4.65;;
72621;SDS011;60665;53.506;9.582;2022-12-18T21:51:29;12.30;;;4.60;;
72621;SDS011;60665;53.506;9.582;2022-12-18T21:53:55;10.18;;;4.32;;
